Flight Track Log - Related Links

Times and Time Zones

All times are in EDT time to prevent confusion due to time zone crossing. See the N71AA flight status page for this flight to view local times or setup timezone preferences in your user account.

Time Position Orientation Groundspeed Altitude Reporting Facility
EDT Latitude Longitude Course Direction KTS MPH feet Rate Location/Type
Wed 04:31:00 PM 47.5156 -122.2856 144° Southeast 151 174 1,200  Level Seattle Center
Wed 04:31:43 PM 47.4914 -122.2597 144° Southeast 158 182 3,100 2,509 Climbing Seattle Center
Wed 04:32:50 PM 47.4614 -122.1944 124° Southeast 190 219 5,800 2,578 Climbing Seattle Center
Wed 04:33:51 PM 47.4411 -122.1236 113° Southeast 177 204 8,600 2,367 Climbing Seattle Center
Wed 04:35:17 PM 47.4136 -122.0258 113° Southeast 189 217 11,600 1,946 Climbing Seattle Center
Wed 04:36:19 PM 47.3889 -121.9400 113° Southeast 212 244 13,400 1,610 Climbing Seattle Center
Wed 04:37:20 PM 47.3642 -121.8558 113° Southeast 225 259 14,900 1,082 Climbing Seattle Center
Wed 04:38:21 PM 47.3208 -121.7767 129° Southeast 254 292 15,600 341 Climbing Seattle Center
Wed 04:39:23 PM 47.2650 -121.6842 132° Southeast 283 326 15,600 -49 Level Seattle Center
Wed 04:40:24 PM 47.2103 -121.5925 131° Southeast 300 345 15,500  Descending Seattle Center
Wed 04:41:25 PM 47.1567 -121.5019 131° Southeast 298 343 15,600 49 Climbing Seattle Center
Wed 04:42:26 PM 47.1025 -121.4133 132° Southeast 292 336 15,600  Level Seattle Center
Wed 04:43:28 PM 47.0433 -121.3150 131° Southeast 298 343 15,600  Level Seattle Center
Wed 04:44:29 PM 46.9894 -121.2264 132° Southeast 299 344 15,600  Level Seattle Center
Wed 04:45:30 PM 46.9339 -121.1361 132° Southeast 302 348 15,600 -98 Level Seattle Center
Wed 04:46:32 PM 46.8786 -121.0472 132° Southeast 296 341 15,400 -829 Descending Seattle Center
Wed 04:47:33 PM 46.8233 -120.9528 131° Southeast 306 352 13,900 -1,672 Descending Seattle Center
Wed 04:48:34 PM 46.7686 -120.8650 132° Southeast 293 337 12,000 -2,244 Descending Seattle Center
Wed 04:49:36 PM 46.7092 -120.7692 132° Southeast 282 325 9,300 -2,537 Descending Seattle Center
Wed 04:50:37 PM 46.6586 -120.6828 130° Southeast 282 325 6,800 -2,262 Descending Seattle Center
Wed 04:51:38 PM 46.6119 -120.5903 126° Southeast 268 308 4,700 -1,574 Descending Seattle Center
Wed 04:52:39 PM 46.5886 -120.5153 114° Southeast 206 237 3,600 -1,073 Descending Seattle Center
Wed 04:53:41 PM 46.5664 -120.4731 127° Southeast 141 162 2,500 -1,073 Descending Seattle Center
Wed 04:54:42 PM 46.5606 -120.5150 259° West 117 135 1,400 -689 Descending Seattle Center
Wed 04:55:43 PM 46.5686 -120.5453 291° West 105 121 1,100 -295 Descending Seattle Center
Wed 04:57:00 PM 46.5682 -120.5441 290° West  Level Estimated
Wed 05:04:00 PM 46.5682 -120.5441 North  Level Estimated

Login

Don't have an account? Register now (free) for customized features, flight alerts, and more!